createdAt,value
2023-05-17T00:01:17.456Z,100490.06
2023-05-17T00:03:45.954Z,100505.38
2023-05-17T00:06:14.243Z,100508.09
2023-05-17T00:08:42.412Z,100515.16
2023-05-17T00:11:10.679Z,100529.03
2023-05-17T00:13:40.079Z,100510.13
2023-05-17T00:16:09.571Z,100533.34
2023-05-17T00:18:39.501Z,100547.00
2023-05-17T00:21:08.338Z,100532.81
2023-05-17T00:23:36.492Z,100537.47
2023-05-17T00:26:04.734Z,100539.88
2023-05-17T00:28:36.257Z,100548.94
2023-05-17T00:31:04.610Z,100558.41
2023-05-17T00:33:35.640Z,100560.69
2023-05-17T00:36:05.777Z,100567.28
2023-05-17T00:38:33.995Z,100577.38
2023-05-17T00:41:02.439Z,100567.66
2023-05-17T00:43:30.729Z,100576.41
2023-05-17T00:45:59.096Z,100577.16
2023-05-17T00:48:28.010Z,100572.47
2023-05-17T00:50:57.552Z,100583.84
2023-05-17T00:53:29.192Z,100585.13
2023-05-17T00:55:57.857Z,100587.41
2023-05-17T00:58:26.934Z,100567.78
2023-05-17T01:00:55.545Z,100596.22
2023-05-17T01:03:24.167Z,100600.16
2023-05-17T01:05:53.039Z,100601.50
2023-05-17T01:08:22.220Z,100608.72
2023-05-17T01:10:59.329Z,100616.41
2023-05-17T01:13:34.200Z,100625.34
2023-05-17T01:16:09.568Z,100619.09
2023-05-17T01:18:42.677Z,100625.56
2023-05-17T01:21:24.177Z,100630.63
2023-05-17T01:24:01.599Z,100629.53
2023-05-17T01:26:39.903Z,100632.25
2023-05-17T01:29:10.198Z,100645.63
2023-05-17T01:31:40.088Z,100637.81
2023-05-17T01:34:09.390Z,100639.31
2023-05-17T01:36:37.720Z,100637.22
2023-05-17T01:39:05.993Z,100643.22
2023-05-17T01:41:44.613Z,100634.25
2023-05-17T01:44:21.873Z,100635.66
2023-05-17T01:46:54.565Z,100651.91
2023-05-17T01:49:25.678Z,100629.53
2023-05-17T01:51:59.527Z,100651.69
2023-05-17T01:54:34.153Z,100636.81
2023-05-17T01:57:07.678Z,100655.28
2023-05-17T01:59:39.368Z,100663.25
2023-05-17T02:02:09.095Z,100661.47
2023-05-17T02:04:38.028Z,100662.31
2023-05-17T02:07:06.597Z,100673.06
2023-05-17T02:09:36.820Z,100673.66
2023-05-17T02:12:07.801Z,100665.81
2023-05-17T02:14:35.912Z,100688.78
2023-05-17T02:17:06.211Z,100644.13
2023-05-17T02:19:34.777Z,100668.91
2023-05-17T02:22:06.067Z,100670.75
2023-05-17T02:24:35.025Z,100668.88
2023-05-17T02:27:07.758Z,100670.66
2023-05-17T02:29:38.008Z,100670.94
2023-05-17T02:32:09.698Z,100684.97
2023-05-17T02:34:37.889Z,100674.22
2023-05-17T02:37:06.877Z,100650.75
2023-05-17T02:39:35.542Z,100683.00
2023-05-17T02:42:05.720Z,100653.16
2023-05-17T02:44:36.789Z,100670.94
2023-05-17T02:47:08.497Z,100681.44
2023-05-17T02:49:37.012Z,100695.44
2023-05-17T02:52:06.318Z,100688.44
2023-05-17T02:54:35.161Z,100683.91
2023-05-17T02:57:04.076Z,100686.63
2023-05-17T02:59:32.706Z,100693.63
2023-05-17T03:02:02.481Z,100691.59
2023-05-17T03:04:30.809Z,100699.59
2023-05-17T03:06:59.074Z,100704.03
2023-05-17T03:09:30.117Z,100711.09
2023-05-17T03:11:59.713Z,100704.06
2023-05-17T03:14:28.162Z,100707.63
2023-05-17T03:16:56.625Z,100712.91
2023-05-17T03:19:26.766Z,100711.09
2023-05-17T03:21:55.230Z,100721.66
2023-05-17T03:24:23.884Z,100717.84
2023-05-17T03:26:52.227Z,100717.63
2023-05-17T03:29:20.515Z,100720.25
2023-05-17T03:31:48.859Z,100720.06
2023-05-17T03:34:17.298Z,100725.28
2023-05-17T03:36:47.722Z,100721.56
2023-05-17T03:39:15.832Z,100715.16
2023-05-17T03:41:44.593Z,100730.41
2023-05-17T03:44:16.784Z,100728.78
2023-05-17T03:46:45.261Z,100732.22
2023-05-17T03:49:14.029Z,100736.94
2023-05-17T03:51:42.228Z,100738.56
2023-05-17T03:54:12.280Z,100746.47
2023-05-17T03:56:40.658Z,100741.22
2023-05-17T03:59:09.233Z,100739.75
2023-05-17T04:01:37.339Z,100768.13
2023-05-17T04:04:06.530Z,100768.06
2023-05-17T04:06:35.017Z,100776.88
2023-05-17T04:09:07.512Z,100782.03
2023-05-17T04:11:38.394Z,100788.03
2023-05-17T04:14:07.152Z,100797.00
2023-05-17T04:16:43.671Z,100796.25
2023-05-17T04:19:13.801Z,100799.72
2023-05-17T04:21:42.598Z,100802.28
2023-05-17T04:24:11.245Z,100813.69
2023-05-17T04:26:41.269Z,100824.41
2023-05-17T04:29:09.552Z,100824.53
2023-05-17T04:31:37.682Z,100834.91
2023-05-17T04:34:06.107Z,100843.72
2023-05-17T04:36:34.756Z,100847.28
2023-05-17T04:39:06.192Z,100842.22
2023-05-17T04:41:34.510Z,100852.59
2023-05-17T04:44:04.790Z,100875.25
2023-05-17T04:46:33.580Z,100878.84
2023-05-17T04:49:04.571Z,100884.28
2023-05-17T04:51:35.188Z,100896.53
2023-05-17T04:54:06.987Z,100896.66
2023-05-17T04:56:36.551Z,100900.16
2023-05-17T04:59:06.228Z,100894.84
2023-05-17T05:01:35.472Z,100921.28
2023-05-17T05:04:07.227Z,100924.91
2023-05-17T05:06:38.319Z,100937.25
2023-05-17T05:09:06.612Z,100942.44
2023-05-17T05:11:35.176Z,100932.97
2023-05-17T05:14:03.853Z,100963.56
2023-05-17T05:16:37.377Z,100947.88
2023-05-17T05:19:05.733Z,100976.84
2023-05-17T05:21:34.562Z,100977.69
2023-05-17T05:24:05.743Z,100993.44
2023-05-17T05:26:37.092Z,100998.69
2023-05-17T05:29:06.269Z,101001.34
2023-05-17T05:31:36.089Z,101009.25
2023-05-17T05:34:04.751Z,101018.13
2023-05-17T05:36:33.448Z,101009.38
2023-05-17T05:39:04.686Z,101025.16
2023-05-17T05:41:33.433Z,101040.97
2023-05-17T05:44:02.087Z,101039.22
2023-05-17T05:46:31.371Z,101061.19
2023-05-17T05:49:01.058Z,101069.09
2023-05-17T05:51:29.375Z,101073.47
2023-05-17T05:53:58.948Z,101090.09
2023-05-17T05:56:28.269Z,101084.88
2023-05-17T05:58:56.751Z,101098.06
2023-05-17T06:01:26.475Z,101081.38
2023-05-17T06:03:54.748Z,101116.47
2023-05-17T06:06:24.648Z,101111.19
2023-05-17T06:08:53.155Z,101114.69
2023-05-17T06:11:22.098Z,101128.75
2023-05-17T06:13:50.797Z,101128.75
2023-05-17T06:16:21.384Z,101140.13
2023-05-17T06:18:52.287Z,101146.28
2023-05-17T06:21:20.567Z,101179.59
2023-05-17T06:23:50.541Z,101178.63
2023-05-17T06:26:21.004Z,101202.25
2023-05-17T06:28:49.400Z,101202.94
2023-05-17T06:31:19.752Z,101209.22
2023-05-17T06:33:49.749Z,101201.06
2023-05-17T06:36:18.277Z,101227.38
2023-05-17T06:38:46.481Z,101232.78
2023-05-17T06:41:16.451Z,101232.03
2023-05-17T06:43:44.823Z,101235.47
2023-05-17T06:46:12.979Z,101224.97
2023-05-17T06:48:44.504Z,101247.59
2023-05-17T06:51:13.200Z,101256.50
2023-05-17T06:53:41.618Z,101246.00
2023-05-17T06:56:09.817Z,101276.78
2023-05-17T06:58:42.024Z,101277.56
2023-05-17T07:01:10.427Z,101273.91
2023-05-17T07:03:38.852Z,101286.16
2023-05-17T07:06:07.636Z,101295.09
2023-05-17T07:08:35.980Z,101295.09
2023-05-17T07:11:04.807Z,101287.22
2023-05-17T07:13:35.445Z,101302.22
2023-05-17T07:16:11.436Z,101304.03
2023-05-17T07:18:39.703Z,101300.41
2023-05-17T07:21:08.661Z,101301.38
2023-05-17T07:23:37.085Z,101320.22
2023-05-17T07:26:05.529Z,101322.97
2023-05-17T07:28:36.750Z,101333.53
2023-05-17T07:31:04.927Z,101337.09
2023-05-17T07:33:34.911Z,101341.56
2023-05-17T07:36:06.034Z,101346.00
2023-05-17T07:38:36.284Z,101351.34
2023-05-17T07:41:10.051Z,101358.22
2023-05-17T07:43:38.938Z,101367.00
2023-05-17T07:46:08.171Z,101363.47
2023-05-17T07:48:37.937Z,101366.16
2023-05-17T07:51:06.245Z,101368.88
2023-05-17T07:53:34.510Z,101381.28
2023-05-17T07:56:05.869Z,101372.56
2023-05-17T07:58:34.710Z,101390.19
2023-05-17T08:01:05.358Z,101392.88
2023-05-17T08:03:33.772Z,101390.25
2023-05-17T08:06:03.927Z,101398.94
2023-05-17T08:08:35.103Z,101407.78
2023-05-17T08:11:06.882Z,101433.97
2023-05-17T08:13:35.446Z,101439.31
2023-05-17T08:16:12.913Z,101442.94
2023-05-17T08:18:43.655Z,101445.53
2023-05-17T08:21:13.590Z,101457.00
2023-05-17T08:23:42.826Z,101452.56
2023-05-17T08:26:13.141Z,101457.88
2023-05-17T08:28:41.492Z,101458.78
2023-05-17T08:31:09.738Z,101481.59
2023-05-17T08:33:38.398Z,101485.03
2023-05-17T08:36:08.360Z,101481.53
2023-05-17T08:38:38.447Z,101482.63
2023-05-17T08:41:07.066Z,101483.53
2023-05-17T08:43:36.265Z,101490.50
2023-05-17T08:46:05.108Z,101492.34
2023-05-17T08:48:41.990Z,101495.84
2023-05-17T08:51:11.753Z,101495.81
2023-05-17T08:53:42.622Z,101506.41
2023-05-17T08:56:14.321Z,101503.06
2023-05-17T08:58:56.565Z,101473.16
2023-05-17T09:01:27.850Z,101510.13
2023-05-17T09:03:57.541Z,101503.09
2023-05-17T09:06:25.808Z,101504.88
2023-05-17T09:08:56.527Z,101508.41
2023-05-17T09:11:29.123Z,101508.38
2023-05-17T09:14:01.154Z,101511.88
2023-05-17T09:16:30.596Z,101516.28
2023-05-17T09:18:59.988Z,101513.66
2023-05-17T09:21:31.295Z,101520.69
2023-05-17T09:24:07.276Z,101522.41
2023-05-17T09:26:40.872Z,101517.16
2023-05-17T09:29:11.803Z,101514.50
2023-05-17T09:31:41.064Z,101489.00
2023-05-17T09:34:09.777Z,101481.94
2023-05-17T09:36:39.426Z,101524.16
2023-05-17T09:39:13.230Z,101521.56
2023-05-17T09:41:48.043Z,101514.53
2023-05-17T09:44:17.175Z,101520.69
2023-05-17T09:46:47.440Z,101515.38
2023-05-17T09:49:16.579Z,101511.78
2023-05-17T09:51:46.525Z,101519.66
2023-05-17T09:54:17.807Z,101524.03
2023-05-17T09:56:46.734Z,101521.34
2023-05-17T09:59:16.752Z,101513.63
2023-05-17T10:01:46.234Z,101542.56
2023-05-17T10:04:20.869Z,101524.09
2023-05-17T10:06:52.747Z,101540.88
2023-05-17T10:09:24.383Z,101544.38
2023-05-17T10:11:54.151Z,101533.66
2023-05-17T10:14:27.835Z,101550.41
2023-05-17T10:16:57.393Z,101556.53
2023-05-17T10:19:26.829Z,101550.31
2023-05-17T10:22:00.310Z,101561.69
2023-05-17T10:24:38.409Z,101560.94
2023-05-17T10:27:08.749Z,101548.44
2023-05-17T10:29:39.715Z,101573.03
2023-05-17T10:32:08.903Z,101563.16
2023-05-17T10:34:39.046Z,101566.03
2023-05-17T10:37:09.140Z,101556.22
2023-05-17T10:39:39.159Z,101579.19
2023-05-17T10:44:41.255Z,101557.13
2023-05-17T10:47:10.238Z,101552.72
2023-05-17T10:49:40.356Z,101555.06
2023-05-17T10:52:15.482Z,101590.63
2023-05-17T10:54:49.527Z,101575.53
2023-05-17T10:57:22.418Z,101588.69
2023-05-17T11:00:00.824Z,101613.47
2023-05-17T11:02:32.228Z,101615.06
2023-05-17T11:05:02.502Z,101610.00
2023-05-17T11:07:32.840Z,101612.41
2023-05-17T11:10:11.359Z,101631.34
2023-05-17T11:12:42.337Z,101641.00
2023-05-17T11:15:12.916Z,101634.91
2023-05-17T11:17:52.027Z,101641.97
2023-05-17T11:20:37.318Z,101646.28
2023-05-17T11:23:09.391Z,101643.47
2023-05-17T11:25:40.655Z,101650.44
2023-05-17T11:28:10.810Z,101650.53
2023-05-17T11:30:43.737Z,101663.84
2023-05-17T11:33:21.294Z,101663.06
2023-05-17T11:35:58.065Z,101641.97
2023-05-17T11:38:30.670Z,101653.38
2023-05-17T11:41:26.460Z,101679.63
2023-05-17T11:43:56.210Z,101686.69
2023-05-17T11:46:25.646Z,101680.50
2023-05-17T11:48:54.715Z,101667.31
2023-05-17T11:51:25.087Z,101698.88
2023-05-17T11:53:56.254Z,101681.44
2023-05-17T11:56:41.885Z,101706.88
2023-05-17T11:59:11.418Z,101710.38
2023-05-17T12:01:46.784Z,101687.53
2023-05-17T12:04:15.228Z,101710.25
2023-05-17T12:06:44.095Z,101722.38
2023-05-17T12:09:13.858Z,101719.94
2023-05-17T12:11:44.334Z,101727.84
2023-05-17T12:14:16.759Z,101724.25
2023-05-17T12:16:46.400Z,101729.63
2023-05-17T12:19:25.101Z,101736.81
2023-05-17T12:21:53.436Z,101727.94
2023-05-17T12:24:22.002Z,101735.94
2023-05-17T12:26:52.137Z,101740.25
2023-05-17T12:29:24.149Z,101748.84
2023-05-17T12:31:54.200Z,101741.66
2023-05-17T12:34:23.702Z,101754.47
2023-05-17T12:36:53.174Z,101753.66
2023-05-17T12:39:24.104Z,101756.16
2023-05-17T12:41:54.929Z,101741.50
2023-05-17T12:44:23.619Z,101745.97
2023-05-17T12:46:54.090Z,101758.41
2023-05-17T12:49:23.532Z,101757.66
2023-05-17T12:51:52.345Z,101762.91
2023-05-17T12:54:28.410Z,101739.03
2023-05-17T12:56:58.947Z,101769.59
2023-05-17T12:59:29.317Z,101779.53
2023-05-17T13:01:58.823Z,101750.59
2023-05-17T13:04:32.798Z,101778.69
2023-05-17T13:07:03.421Z,101756.25
2023-05-17T13:09:34.549Z,101782.56
2023-05-17T13:12:07.473Z,101783.66
2023-05-17T13:14:42.688Z,101776.53
2023-05-17T13:17:14.774Z,101791.63
2023-05-17T13:19:43.729Z,101786.22
2023-05-17T13:22:12.550Z,101787.22
2023-05-17T13:24:41.220Z,101783.94
2023-05-17T13:27:11.677Z,101794.41
2023-05-17T13:29:43.244Z,101789.88
2023-05-17T13:32:13.499Z,101802.94
2023-05-17T13:34:42.493Z,101787.13
2023-05-17T13:37:12.755Z,101766.22
2023-05-17T13:39:42.274Z,101801.09
2023-05-17T13:42:11.867Z,101776.25
2023-05-17T13:44:41.139Z,101798.13
2023-05-17T13:47:09.550Z,101804.88
2023-05-17T13:49:38.373Z,101794.41
2023-05-17T13:52:09.209Z,101802.97
2023-05-17T13:54:38.619Z,101810.09
2023-05-17T13:57:08.315Z,101809.22
2023-05-17T13:59:38.340Z,101810.75
2023-05-17T14:02:07.400Z,101807.97
2023-05-17T14:04:35.937Z,101808.09
2023-05-17T14:07:04.590Z,101817.88
2023-05-17T14:09:34.609Z,101822.38
2023-05-17T14:12:03.138Z,101824.47
2023-05-17T14:14:32.124Z,101799.78
2023-05-17T14:17:02.688Z,101831.13
2023-05-17T14:19:31.141Z,101837.53
2023-05-17T14:21:59.680Z,101825.84
2023-05-17T14:24:27.968Z,101845.22
2023-05-17T14:26:57.932Z,101838.44
2023-05-17T14:29:26.678Z,101834.81
2023-05-17T14:31:55.855Z,101818.16
2023-05-17T14:34:25.531Z,101831.56
2023-05-17T14:36:54.452Z,101848.56
2023-05-17T14:39:22.598Z,101841.84
2023-05-17T14:41:50.875Z,101845.34
2023-05-17T14:44:19.431Z,101844.31
2023-05-17T14:46:47.896Z,101852.41
2023-05-17T14:49:16.594Z,101852.28
2023-05-17T14:51:46.682Z,101857.59
2023-05-17T14:54:15.307Z,101850.50
2023-05-17T14:56:44.336Z,101857.47
2023-05-17T14:59:13.538Z,101854.94
2023-05-17T15:01:41.782Z,101848.84
2023-05-17T15:04:10.905Z,101854.09
2023-05-17T15:06:39.361Z,101859.47
2023-05-17T15:09:13.043Z,101873.72
2023-05-17T15:11:42.137Z,101868.53
2023-05-17T15:14:10.886Z,101870.06
2023-05-17T15:16:39.771Z,101863.59
2023-05-17T15:19:08.250Z,101862.09
2023-05-17T15:21:37.446Z,101868.88
2023-05-17T15:24:06.579Z,101867.06
2023-05-17T15:26:36.516Z,101876.94
2023-05-17T15:29:05.029Z,101882.19
2023-05-17T15:31:33.548Z,101874.03
2023-05-17T15:34:02.442Z,101882.13
2023-05-17T15:36:32.954Z,101883.09
2023-05-17T15:39:01.608Z,101879.75
2023-05-17T15:41:32.489Z,101881.44
2023-05-17T15:44:05.518Z,101883.72
2023-05-17T15:46:34.304Z,101859.97
2023-05-17T15:49:02.913Z,101887.72
2023-05-17T15:51:31.092Z,101884.25
2023-05-17T15:53:59.794Z,101871.84
2023-05-17T15:56:28.807Z,101879.78
2023-05-17T15:58:57.233Z,101886.69
2023-05-17T16:01:26.905Z,101875.53
2023-05-17T16:03:58.024Z,101880.78
2023-05-17T16:06:27.005Z,101866.47
2023-05-17T16:08:55.814Z,101883.78
2023-05-17T16:11:25.043Z,101887.72
2023-05-17T16:13:53.378Z,101887.69
2023-05-17T16:16:21.539Z,101892.72
2023-05-17T16:18:51.332Z,101891.34
2023-05-17T16:21:20.095Z,101888.69
2023-05-17T16:23:48.272Z,101893.00
2023-05-17T16:26:16.613Z,101900.09
2023-05-17T16:28:46.813Z,101905.72
2023-05-17T16:31:15.722Z,101901.94
2023-05-17T16:33:44.198Z,101884.50
2023-05-17T16:36:14.291Z,101902.44
2023-05-17T16:38:42.702Z,101912.94
2023-05-17T16:41:11.122Z,101911.00
2023-05-17T16:43:39.306Z,101912.81
2023-05-17T16:46:07.776Z,101908.59
2023-05-17T16:48:37.077Z,101906.00
2023-05-17T16:51:05.960Z,101907.81
2023-05-17T16:53:35.532Z,101890.88
2023-05-17T16:56:03.950Z,101912.59
2023-05-17T16:58:32.531Z,101917.94
2023-05-17T17:01:00.832Z,101916.44
2023-05-17T17:03:29.044Z,101919.22
2023-05-17T17:05:58.075Z,101929.84
2023-05-17T17:08:26.801Z,101924.38
2023-05-17T17:10:56.534Z,101918.25
2023-05-17T17:13:24.887Z,101934.19
2023-05-17T17:15:53.403Z,101927.25
2023-05-17T17:18:21.901Z,101923.69
2023-05-17T17:20:50.358Z,101930.75
2023-05-17T17:23:18.578Z,101930.53
2023-05-17T17:25:47.026Z,101935.84
2023-05-17T17:28:16.646Z,101941.38
2023-05-17T17:30:44.841Z,101936.91
2023-05-17T17:33:12.992Z,101941.38
2023-05-17T17:35:41.220Z,101949.38
2023-05-17T17:38:10.566Z,101935.38
2023-05-17T17:40:38.997Z,101936.06
2023-05-17T17:43:07.301Z,101942.16
2023-05-17T17:45:37.116Z,101944.91
2023-05-17T17:48:05.761Z,101955.59
2023-05-17T17:50:34.111Z,101957.47
2023-05-17T17:53:02.340Z,101960.06
2023-05-17T17:55:30.724Z,101957.56
2023-05-17T17:58:01.188Z,101962.00
2023-05-17T18:00:30.141Z,101969.81
2023-05-17T18:03:00.501Z,101962.78
2023-05-17T18:05:29.018Z,101974.34
2023-05-17T18:07:57.501Z,101989.31
2023-05-17T18:10:25.710Z,101980.56
2023-05-17T18:12:54.989Z,101977.03
2023-05-17T18:15:23.206Z,102002.72
2023-05-17T18:17:52.225Z,102008.94
2023-05-17T18:20:22.817Z,102008.00
2023-05-17T18:22:51.030Z,102011.50
2023-05-17T18:25:19.517Z,102009.75
2023-05-17T18:27:47.751Z,102003.59
2023-05-17T18:30:16.388Z,102023.00
2023-05-17T18:32:44.893Z,102012.38
2023-05-17T18:35:13.332Z,102028.28
2023-05-17T18:37:43.173Z,102037.22
2023-05-17T18:40:12.581Z,102035.41
2023-05-17T18:42:40.784Z,102037.22
2023-05-17T18:45:10.172Z,102037.22
2023-05-17T18:47:38.455Z,102017.78
2023-05-17T18:50:07.535Z,102041.69
2023-05-17T18:52:35.781Z,102037.25
2023-05-17T18:55:05.963Z,102021.34
2023-05-17T18:57:34.485Z,102038.97
2023-05-17T19:00:02.888Z,102044.28
2023-05-17T19:02:31.391Z,102049.59
2023-05-17T19:04:59.655Z,102046.06
2023-05-17T19:07:27.809Z,102045.19
2023-05-17T19:09:57.017Z,102047.84
2023-05-17T19:12:26.952Z,102059.28
2023-05-17T19:14:55.197Z,102063.69
2023-05-17T19:17:23.800Z,102058.41
2023-05-17T19:19:52.057Z,102047.81
2023-05-17T19:22:20.422Z,102062.84
2023-05-17T19:24:48.757Z,102063.72
2023-05-17T19:27:19.864Z,102068.16
2023-05-17T19:29:49.640Z,102064.59
2023-05-17T19:32:17.997Z,102076.09
2023-05-17T19:37:28.895Z,102077.88
2023-05-17T19:39:57.198Z,102083.16
2023-05-17T19:42:25.589Z,102063.75
2023-05-17T19:44:55.775Z,102090.22
2023-05-17T19:47:24.030Z,102093.75
2023-05-17T19:49:52.419Z,102089.34
2023-05-17T19:52:21.005Z,102092.00
2023-05-17T19:54:49.527Z,102099.06
2023-05-17T19:57:17.844Z,102092.00
2023-05-17T20:02:18.721Z,102099.06
2023-05-17T20:04:48.094Z,102107.00
2023-05-17T20:07:17.525Z,102104.38
2023-05-17T20:09:45.737Z,102107.00
2023-05-17T20:12:15.004Z,102111.41
2023-05-17T20:14:43.135Z,102109.66
2023-05-17T20:17:12.985Z,102108.78
2023-05-17T20:19:43.148Z,102118.47
2023-05-17T20:22:11.670Z,102120.25
2023-05-17T20:24:40.232Z,102130.88
2023-05-17T20:27:08.741Z,102125.56
2023-05-17T20:29:36.968Z,102130.00
2023-05-17T20:32:05.726Z,102132.63
2023-05-17T20:34:34.429Z,102139.69
2023-05-17T20:37:04.055Z,102139.66
2023-05-17T20:39:32.974Z,102141.44
2023-05-17T20:42:02.616Z,102143.19
2023-05-17T20:44:33.317Z,102142.28
2023-05-17T20:47:05.832Z,102149.41
2023-05-17T20:49:34.184Z,102146.75
2023-05-17T20:52:06.890Z,102159.09
2023-05-17T20:54:35.299Z,102146.69
2023-05-17T20:57:04.433Z,102152.88
2023-05-17T20:59:32.849Z,102159.06
2023-05-17T21:02:02.170Z,102157.31
2023-05-17T21:04:30.697Z,102162.59
2023-05-17T21:06:59.073Z,102159.91
2023-05-17T21:09:29.594Z,102160.78
2023-05-17T21:11:57.842Z,102158.91
2023-05-17T21:14:26.234Z,102166.00
2023-05-17T21:16:55.908Z,102161.69
2023-05-17T21:19:24.345Z,102166.88
2023-05-17T21:21:54.751Z,102173.06
2023-05-17T21:24:23.155Z,102174.69
2023-05-17T21:26:53.418Z,102171.06
2023-05-17T21:29:21.764Z,102177.97
2023-05-17T21:31:50.262Z,102178.16
2023-05-17T21:34:18.888Z,102179.97
2023-05-17T21:36:47.244Z,102179.09
2023-05-17T21:39:15.692Z,102176.50
2023-05-17T21:41:44.005Z,102179.97
2023-05-17T21:44:13.955Z,102193.19
2023-05-17T21:46:42.595Z,102192.25
2023-05-17T21:49:10.983Z,102192.22
2023-05-17T21:51:40.796Z,102200.97
2023-05-17T21:54:09.253Z,102202.69
2023-05-17T21:56:37.666Z,102189.47
2023-05-17T21:59:07.649Z,102199.28
2023-05-17T22:01:37.327Z,102201.06
2023-05-17T22:04:06.040Z,102197.50
2023-05-17T22:06:34.336Z,102202.81
2023-05-17T22:09:02.700Z,102207.25
2023-05-17T22:11:30.981Z,102204.59
2023-05-17T22:13:59.508Z,102209.81
2023-05-17T22:16:27.870Z,102210.69
2023-05-17T22:19:01.173Z,102211.56
2023-05-17T22:21:30.349Z,102215.13
2023-05-17T22:23:58.830Z,102218.66
2023-05-17T22:26:27.896Z,102187.56
2023-05-17T22:28:57.024Z,102213.25
2023-05-17T22:31:26.750Z,102216.84
2023-05-17T22:33:56.111Z,102210.66
2023-05-17T22:36:27.581Z,102213.19
2023-05-17T22:38:59.618Z,102215.91
2023-05-17T22:41:28.639Z,102215.94
2023-05-17T22:43:56.912Z,102215.00
2023-05-17T22:46:28.296Z,102215.00
2023-05-17T22:48:58.478Z,102204.44
2023-05-17T22:51:31.317Z,102209.72
2023-05-17T22:54:00.139Z,102220.25
2023-05-17T22:56:30.645Z,102221.16
2023-05-17T22:58:59.736Z,102213.16
2023-05-17T23:01:28.761Z,102214.75
2023-05-17T23:03:57.327Z,102213.13
2023-05-17T23:06:27.463Z,102207.75
2023-05-17T23:08:55.818Z,102212.34
2023-05-17T23:11:24.558Z,102212.31
2023-05-17T23:13:53.011Z,102215.81
2023-05-17T23:16:26.266Z,102216.63
2023-05-17T23:18:54.903Z,102218.50
2023-05-17T23:21:23.625Z,102222.03
2023-05-17T23:23:53.677Z,102220.19
2023-05-17T23:26:22.416Z,102223.72
2023-05-17T23:28:53.721Z,102222.00
2023-05-17T23:31:23.034Z,102229.03
2023-05-17T23:33:52.500Z,102199.03
2023-05-17T23:36:21.857Z,102227.34
2023-05-17T23:38:50.598Z,102232.63
2023-05-17T23:41:23.925Z,102227.34
2023-05-17T23:43:53.176Z,102228.22
2023-05-17T23:46:22.233Z,102229.94
2023-05-17T23:48:52.000Z,102223.84
2023-05-17T23:51:22.087Z,102230.06
2023-05-17T23:53:51.325Z,102225.69
2023-05-17T23:56:23.691Z,102225.72
2023-05-17T23:58:52.166Z,102225.81
